sensor_id;sensor_type;location;lat;lon;timestamp;pressure;altitude;pressure_sealevel;temperature;humidity
9229;BME280;4649;42.644;23.284;2022-07-29T05:16:14;93280.72;;;28.36;52.35
9229;BME280;4649;42.644;23.284;2022-07-29T05:18:42;93288.38;;;27.94;53.61
9229;BME280;4649;42.644;23.284;2022-07-29T05:21:09;93209.06;;;27.09;54.14
9229;BME280;4649;42.644;23.284;2022-07-29T05:23:37;93250.16;;;27.11;54.21
9229;BME280;4649;42.644;23.284;2022-07-29T05:26:03;93221.38;;;27.27;55.33
9229;BME280;4649;42.644;23.284;2022-07-29T05:28:33;93288.13;;;27.90;54.36
9229;BME280;4649;42.644;23.284;2022-07-29T05:31:00;93283.72;;;28.08;55.16
9229;BME280;4649;42.644;23.284;2022-07-29T05:33:28;93259.88;;;28.05;54.14
9229;BME280;4649;42.644;23.284;2022-07-29T05:35:55;93245.69;;;28.33;52.45
9229;BME280;4649;42.644;23.284;2022-07-29T05:38:22;93275.41;;;28.51;52.19
9229;BME280;4649;42.644;23.284;2022-07-29T05:40:49;93286.28;;;28.91;50.72
9229;BME280;4649;42.644;23.284;2022-07-29T05:43:16;93207.97;;;28.64;50.43
9229;BME280;4649;42.644;23.284;2022-07-29T05:45:42;93160.59;;;28.41;48.72
9229;BME280;4649;42.644;23.284;2022-07-29T05:48:09;93262.31;;;29.32;49.29
9229;BME280;4649;42.644;23.284;2022-07-29T05:50:37;93202.28;;;29.19;48.14
9229;BME280;4649;42.644;23.284;2022-07-29T05:53:04;93292.63;;;29.96;48.01
9229;BME280;4649;42.644;23.284;2022-07-29T05:55:31;93224.34;;;29.74;45.93
9229;BME280;4649;42.644;23.284;2022-07-29T05:57:58;93261.81;;;30.19;46.64
9229;BME280;4649;42.644;23.284;2022-07-29T06:00:24;93237.31;;;30.18;44.78
9229;BME280;4649;42.644;23.284;2022-07-29T06:02:51;93239.81;;;30.25;43.96
9229;BME280;4649;42.644;23.284;2022-07-29T06:05:18;93219.78;;;30.28;44.85
9229;BME280;4649;42.644;23.284;2022-07-29T06:07:46;93215.91;;;30.47;44.10
9229;BME280;4649;42.644;23.284;2022-07-29T06:10:13;93301.72;;;31.07;44.55
9229;BME280;4649;42.644;23.284;2022-07-29T06:12:40;93161.75;;;30.02;43.82
9229;BME280;4649;42.644;23.284;2022-07-29T06:15:08;93237.31;;;30.94;43.34
9229;BME280;4649;42.644;23.284;2022-07-29T06:17:35;93309.41;;;31.47;43.67
9229;BME280;4649;42.644;23.284;2022-07-29T06:20:03;93255.00;;;30.72;42.03
9229;BME280;4649;42.644;23.284;2022-07-29T06:22:29;93206.25;;;30.36;43.52
9229;BME280;4649;42.644;23.284;2022-07-29T06:25:11;93312.38;;;29.41;48.77
9229;BME280;4649;42.644;23.284;2022-07-29T06:27:41;93234.25;;;28.61;46.79
9229;BME280;4649;42.644;23.284;2022-07-29T06:30:15;93308.09;;;29.63;46.62
9229;BME280;4649;42.644;23.284;2022-07-29T09:22:29;93276.53;;;30.20;43.14
9229;BME280;4649;42.644;23.284;2022-07-29T09:24:58;93283.31;;;30.53;40.86
9229;BME280;4649;42.644;23.284;2022-07-29T09:27:25;93275.63;;;30.78;41.79
9229;BME280;4649;42.644;23.284;2022-07-29T09:29:58;93222.34;;;30.24;41.24
9229;BME280;4649;42.644;23.284;2022-07-29T09:32:26;93247.84;;;30.19;41.53
9229;BME280;4649;42.644;23.284;2022-07-29T09:35:14;93125.31;;;29.87;41.14
9229;BME280;4649;42.644;23.284;2022-07-29T09:37:43;93191.72;;;30.26;38.73
9229;BME280;4649;42.644;23.284;2022-07-29T09:40:14;93205.31;;;29.12;42.50
9229;BME280;4649;42.644;23.284;2022-07-29T09:42:42;93128.88;;;28.46;42.43
9229;BME280;4649;42.644;23.284;2022-07-29T09:45:09;93272.44;;;29.61;42.95
9229;BME280;4649;42.644;23.284;2022-07-29T09:47:47;93234.25;;;29.30;42.24
9229;BME280;4649;42.644;23.284;2022-07-29T09:50:14;93172.13;;;28.82;44.00
9229;BME280;4649;42.644;23.284;2022-07-29T09:52:47;93142.44;;;28.29;43.60
9229;BME280;4649;42.644;23.284;2022-07-29T09:55:14;93267.97;;;29.11;44.33
9229;BME280;4649;42.644;23.284;2022-07-29T10:08:05;93119.19;;;26.54;51.01
9229;BME280;4649;42.644;23.284;2022-07-29T10:11:05;93159.47;;;27.48;50.07
9229;BME280;4649;42.644;23.284;2022-07-29T10:16:12;93154.66;;;28.35;47.28
9229;BME280;4649;42.644;23.284;2022-07-29T10:18:42;93088.44;;;28.57;46.03
9229;BME280;4649;42.644;23.284;2022-07-29T10:21:10;93188.47;;;29.21;44.46
9229;BME280;4649;42.644;23.284;2022-07-29T10:23:41;93038.09;;;28.19;45.02
9229;BME280;4649;42.644;23.284;2022-07-29T10:26:18;93126.09;;;29.64;42.44
9229;BME280;4649;42.644;23.284;2022-07-29T10:28:46;93106.53;;;30.01;42.02
9229;BME280;4649;42.644;23.284;2022-07-29T10:31:19;93125.34;;;28.57;43.96
9229;BME280;4649;42.644;23.284;2022-07-29T10:33:56;93202.59;;;29.48;44.54
9229;BME280;4649;42.644;23.284;2022-07-29T10:36:40;93151.84;;;29.15;44.14
9229;BME280;4649;42.644;23.284;2022-07-29T10:39:24;93156.16;;;29.77;43.29
9229;BME280;4649;42.644;23.284;2022-07-29T10:42:05;93090.38;;;28.54;44.27
9229;BME280;4649;42.644;23.284;2022-07-29T10:44:39;93166.91;;;28.53;44.95
9229;BME280;4649;42.644;23.284;2022-07-29T10:47:20;93179.75;;;28.58;45.82
9229;BME280;4649;42.644;23.284;2022-07-29T10:50:07;93212.50;;;28.92;46.58
9229;BME280;4649;42.644;23.284;2022-07-29T10:52:58;93124.50;;;28.55;45.04
9229;BME280;4649;42.644;23.284;2022-07-29T10:59:24;93208.53;;;29.43;46.81
9229;BME280;4649;42.644;23.284;2022-07-29T11:01:52;93152.69;;;29.65;45.37
9229;BME280;4649;42.644;23.284;2022-07-29T11:07:24;93084.19;;;29.15;43.48
9229;BME280;4649;42.644;23.284;2022-07-29T11:12:56;93161.94;;;29.57;43.65
9229;BME280;4649;42.644;23.284;2022-07-29T11:15:23;93159.00;;;29.18;43.40
9229;BME280;4649;42.644;23.284;2022-07-29T11:18:04;93153.69;;;29.58;42.41
9229;BME280;4649;42.644;23.284;2022-07-29T11:20:33;93157.41;;;29.99;41.36
9229;BME280;4649;42.644;23.284;2022-07-29T11:23:00;93127.88;;;30.21;41.11
9229;BME280;4649;42.644;23.284;2022-07-29T11:25:27;93098.44;;;29.44;41.77
9229;BME280;4649;42.644;23.284;2022-07-29T11:31:34;93027.66;;;27.96;43.30
9229;BME280;4649;42.644;23.284;2022-07-29T11:34:35;93156.97;;;28.62;44.82
9229;BME280;4649;42.644;23.284;2022-07-29T12:59:38;92950.56;;;27.30;41.66
9229;BME280;4649;42.644;23.284;2022-07-29T13:02:27;93138.00;;;29.17;42.61
9229;BME280;4649;42.644;23.284;2022-07-29T13:14:51;92955.06;;;27.58;40.87
9229;BME280;4649;42.644;23.284;2022-07-29T13:17:39;93129.63;;;28.81;41.05
9229;BME280;4649;42.644;23.284;2022-07-29T13:22:59;92964.50;;;27.99;39.68
9229;BME280;4649;42.644;23.284;2022-07-29T13:25:28;93093.25;;;28.68;40.97
9229;BME280;4649;42.644;23.284;2022-07-29T13:27:57;93122.16;;;29.08;41.16
9229;BME280;4649;42.644;23.284;2022-07-29T13:30:25;92998.50;;;28.32;40.50
9229;BME280;4649;42.644;23.284;2022-07-29T13:32:54;92938.84;;;27.89;41.57
9229;BME280;4649;42.644;23.284;2022-07-29T13:35:23;93109.25;;;28.90;41.32
9229;BME280;4649;42.644;23.284;2022-07-29T13:38:09;92947.09;;;27.64;40.57
9229;BME280;4649;42.644;23.284;2022-07-29T13:41:03;93098.59;;;28.41;40.47
9229;BME280;4649;42.644;23.284;2022-07-29T13:43:41;93113.72;;;28.61;40.80
9229;BME280;4649;42.644;23.284;2022-07-29T13:46:33;93098.84;;;28.79;40.50
9229;BME280;4649;42.644;23.284;2022-07-29T13:49:43;93094.59;;;28.90;40.54
9229;BME280;4649;42.644;23.284;2022-07-29T13:52:33;93021.59;;;28.57;40.45
9229;BME280;4649;42.644;23.284;2022-07-29T13:55:03;93101.50;;;28.89;40.50
9229;BME280;4649;42.644;23.284;2022-07-29T13:57:30;93103.06;;;28.92;39.85
9229;BME280;4649;42.644;23.284;2022-07-29T13:59:57;93113.06;;;29.08;40.62
9229;BME280;4649;42.644;23.284;2022-07-29T14:02:26;93102.56;;;28.72;40.51
9229;BME280;4649;42.644;23.284;2022-07-29T14:04:53;93044.38;;;28.31;39.82
9229;BME280;4649;42.644;23.284;2022-07-29T14:07:21;93118.00;;;28.50;39.64
9229;BME280;4649;42.644;23.284;2022-07-29T14:09:51;93110.22;;;28.60;39.94
9229;BME280;4649;42.644;23.284;2022-07-29T14:15:25;93060.34;;;28.53;39.41
9229;BME280;4649;42.644;23.284;2022-07-29T14:18:10;92936.22;;;27.68;39.79
9229;BME280;4649;42.644;23.284;2022-07-29T14:20:56;93008.91;;;28.31;40.10
9229;BME280;4649;42.644;23.284;2022-07-29T14:23:45;93100.06;;;28.76;40.23
9229;BME280;4649;42.644;23.284;2022-07-29T14:26:27;93089.56;;;28.99;39.75
9229;BME280;4649;42.644;23.284;2022-07-29T14:29:26;93106.09;;;28.84;39.30
9229;BME280;4649;42.644;23.284;2022-07-29T14:31:58;92995.13;;;28.22;39.61
9229;BME280;4649;42.644;23.284;2022-07-29T14:37:41;93105.88;;;28.80;41.07
9229;BME280;4649;42.644;23.284;2022-07-29T14:40:23;93029.13;;;28.32;40.04
9229;BME280;4649;42.644;23.284;2022-07-29T14:42:51;93067.31;;;28.65;40.08
9229;BME280;4649;42.644;23.284;2022-07-29T14:45:18;93061.91;;;28.56;39.09
9229;BME280;4649;42.644;23.284;2022-07-29T14:47:44;93041.50;;;28.29;39.69
9229;BME280;4649;42.644;23.284;2022-07-29T14:50:11;93044.59;;;28.46;39.84
9229;BME280;4649;42.644;23.284;2022-07-29T14:52:40;93098.72;;;28.77;39.83
9229;BME280;4649;42.644;23.284;2022-07-29T14:55:07;93016.06;;;28.23;38.61
9229;BME280;4649;42.644;23.284;2022-07-29T14:57:34;93100.03;;;28.65;38.49
9229;BME280;4649;42.644;23.284;2022-07-29T15:00:02;92957.25;;;27.71;39.70
9229;BME280;4649;42.644;23.284;2022-07-29T15:02:29;93094.84;;;28.82;40.61
9229;BME280;4649;42.644;23.284;2022-07-29T15:04:56;93090.75;;;28.60;40.38
9229;BME280;4649;42.644;23.284;2022-07-29T15:07:23;93079.63;;;28.37;40.43
9229;BME280;4649;42.644;23.284;2022-07-29T15:09:51;92931.00;;;27.74;41.24
9229;BME280;4649;42.644;23.284;2022-07-29T15:12:18;92930.03;;;27.81;40.71
9229;BME280;4649;42.644;23.284;2022-07-29T15:14:45;93022.31;;;28.12;39.19
9229;BME280;4649;42.644;23.284;2022-07-29T15:17:12;93089.16;;;28.46;39.51
9229;BME280;4649;42.644;23.284;2022-07-29T15:19:38;93090.00;;;28.60;40.02
9229;BME280;4649;42.644;23.284;2022-07-29T15:22:05;93019.94;;;28.18;40.14
9229;BME280;4649;42.644;23.284;2022-07-29T15:24:32;93084.41;;;28.71;40.66
9229;BME280;4649;42.644;23.284;2022-07-29T15:27:00;92999.47;;;28.02;40.61
9229;BME280;4649;42.644;23.284;2022-07-29T15:29:27;93026.22;;;28.30;40.56
9229;BME280;4649;42.644;23.284;2022-07-29T15:31:53;93050.41;;;28.38;40.48
9229;BME280;4649;42.644;23.284;2022-07-29T15:34:21;92989.66;;;27.78;41.68
9229;BME280;4649;42.644;23.284;2022-07-29T15:36:49;93024.25;;;28.09;41.74
9229;BME280;4649;42.644;23.284;2022-07-29T15:39:16;93078.25;;;28.27;41.64
9229;BME280;4649;42.644;23.284;2022-07-29T15:41:43;93016.16;;;27.79;42.72
9229;BME280;4649;42.644;23.284;2022-07-29T15:44:15;93080.06;;;28.00;43.65
9229;BME280;4649;42.644;23.284;2022-07-29T15:46:42;92973.31;;;27.06;43.70
9229;BME280;4649;42.644;23.284;2022-07-29T15:49:26;93000.31;;;27.26;44.24
9229;BME280;4649;42.644;23.284;2022-07-29T15:51:57;93051.22;;;27.61;44.68
9229;BME280;4649;42.644;23.284;2022-07-29T15:54:24;93085.19;;;27.71;44.40
9229;BME280;4649;42.644;23.284;2022-07-29T15:56:50;92977.38;;;26.94;44.42
9229;BME280;4649;42.644;23.284;2022-07-29T15:59:19;93082.47;;;27.50;44.20
9229;BME280;4649;42.644;23.284;2022-07-29T16:01:48;93077.47;;;27.37;45.10
9229;BME280;4649;42.644;23.284;2022-07-29T16:04:15;93071.78;;;27.35;45.51
9229;BME280;4649;42.644;23.284;2022-07-29T16:06:43;93060.34;;;27.20;45.78
9229;BME280;4649;42.644;23.284;2022-07-29T16:09:11;93065.34;;;27.21;45.56
9229;BME280;4649;42.644;23.284;2022-07-29T16:11:38;92986.72;;;26.77;44.72
9229;BME280;4649;42.644;23.284;2022-07-29T16:14:05;92908.09;;;26.22;45.25
9229;BME280;4649;42.644;23.284;2022-07-29T16:16:35;93050.44;;;27.17;46.11
9229;BME280;4649;42.644;23.284;2022-07-29T16:19:05;92987.88;;;26.63;46.75
9229;BME280;4649;42.644;23.284;2022-07-29T16:21:34;93082.13;;;27.23;46.64
9229;BME280;4649;42.644;23.284;2022-07-29T16:24:01;92903.16;;;25.79;48.20
9229;BME280;4649;42.644;23.284;2022-07-29T16:26:28;92983.69;;;26.32;47.30
9229;BME280;4649;42.644;23.284;2022-07-29T16:28:55;93042.66;;;26.62;46.48
9229;BME280;4649;42.644;23.284;2022-07-29T16:31:22;92925.88;;;25.86;48.27
9229;BME280;4649;42.644;23.284;2022-07-29T16:33:51;93079.97;;;26.59;50.22
9229;BME280;4649;42.644;23.284;2022-07-29T16:36:18;92912.47;;;25.53;49.72
9229;BME280;4649;42.644;23.284;2022-07-29T16:38:44;92977.16;;;25.76;50.51
9229;BME280;4649;42.644;23.284;2022-07-29T16:41:12;93064.81;;;26.21;51.71
9229;BME280;4649;42.644;23.284;2022-07-29T16:43:38;93057.34;;;26.23;52.35
9229;BME280;4649;42.644;23.284;2022-07-29T16:46:06;93093.78;;;26.48;52.57
9229;BME280;4649;42.644;23.284;2022-07-29T16:48:35;93080.75;;;26.50;51.84
9229;BME280;4649;42.644;23.284;2022-07-29T16:51:05;93085.66;;;26.61;51.75
9229;BME280;4649;42.644;23.284;2022-07-29T16:53:32;93069.69;;;26.41;52.47
9229;BME280;4649;42.644;23.284;2022-07-29T16:55:59;93025.59;;;26.05;51.82
9229;BME280;4649;42.644;23.284;2022-07-29T16:58:26;93084.31;;;26.32;53.06
9229;BME280;4649;42.644;23.284;2022-07-29T17:00:54;92953.63;;;25.47;52.58
9229;BME280;4649;42.644;23.284;2022-07-29T17:03:21;93069.78;;;26.22;52.16
9229;BME280;4649;42.644;23.284;2022-07-29T17:05:48;93002.44;;;25.71;52.67
9229;BME280;4649;42.644;23.284;2022-07-29T17:08:16;93010.44;;;25.67;53.15
9229;BME280;4649;42.644;23.284;2022-07-29T17:10:42;93091.94;;;26.01;54.27
9229;BME280;4649;42.644;23.284;2022-07-29T17:13:09;93079.84;;;25.97;53.97
9229;BME280;4649;42.644;23.284;2022-07-29T17:15:36;93068.94;;;25.80;53.27
9229;BME280;4649;42.644;23.284;2022-07-29T17:18:03;93074.19;;;25.85;53.52
9229;BME280;4649;42.644;23.284;2022-07-29T17:20:29;93021.16;;;25.42;53.19
9229;BME280;4649;42.644;23.284;2022-07-29T17:22:57;93018.88;;;25.29;53.50
9229;BME280;4649;42.644;23.284;2022-07-29T17:25:26;93093.06;;;25.78;52.96
9229;BME280;4649;42.644;23.284;2022-07-29T17:27:53;93079.91;;;25.78;49.26
9229;BME280;4649;42.644;23.284;2022-07-29T17:30:21;92979.25;;;25.17;48.56
9229;BME280;4649;42.644;23.284;2022-07-29T17:32:48;93089.91;;;26.02;48.18
9229;BME280;4649;42.644;23.284;2022-07-29T17:35:15;93091.69;;;26.18;45.24
9229;BME280;4649;42.644;23.284;2022-07-29T17:37:59;93079.66;;;26.04;46.00
9229;BME280;4649;42.644;23.284;2022-07-29T17:40:27;92944.56;;;24.97;46.45
9229;BME280;4649;42.644;23.284;2022-07-29T17:42:54;93021.38;;;25.65;45.37
9229;BME280;4649;42.644;23.284;2022-07-29T17:45:20;93019.94;;;25.64;46.41
9229;BME280;4649;42.644;23.284;2022-07-29T17:47:47;93010.38;;;25.46;45.67
9229;BME280;4649;42.644;23.284;2022-07-29T17:50:14;93087.66;;;26.10;44.96
9229;BME280;4649;42.644;23.284;2022-07-29T17:52:41;93086.47;;;26.13;45.13
9229;BME280;4649;42.644;23.284;2022-07-29T17:55:08;93009.03;;;25.47;45.59
9229;BME280;4649;42.644;23.284;2022-07-29T17:57:36;93038.22;;;25.57;45.66
9229;BME280;4649;42.644;23.284;2022-07-29T18:00:05;93020.56;;;25.53;44.77
9229;BME280;4649;42.644;23.284;2022-07-29T18:02:32;92989.91;;;25.20;46.25
9229;BME280;4649;42.644;23.284;2022-07-29T18:05:02;93047.69;;;25.54;44.11
9229;BME280;4649;42.644;23.284;2022-07-29T18:07:29;93033.72;;;25.43;45.31
9229;BME280;4649;42.644;23.284;2022-07-29T18:09:56;93069.25;;;25.75;44.03
9229;BME280;4649;42.644;23.284;2022-07-29T18:12:23;93096.09;;;25.82;44.41
9229;BME280;4649;42.644;23.284;2022-07-29T18:15:16;93068.97;;;25.71;44.00
9229;BME280;4649;42.644;23.284;2022-07-29T18:17:56;92984.22;;;25.09;42.09
9229;BME280;4649;42.644;23.284;2022-07-29T18:20:23;93110.69;;;26.22;41.14
9229;BME280;4649;42.644;23.284;2022-07-29T18:22:50;93057.31;;;25.63;42.22
9229;BME280;4649;42.644;23.284;2022-07-29T18:25:18;93074.00;;;25.93;42.29
9229;BME280;4649;42.644;23.284;2022-07-29T18:27:51;93108.41;;;26.09;41.83
9229;BME280;4649;42.644;23.284;2022-07-29T18:30:19;92999.50;;;25.19;42.56
9229;BME280;4649;42.644;23.284;2022-07-29T18:36:36;93048.47;;;25.26;45.70
9229;BME280;4649;42.644;23.284;2022-07-29T18:39:03;93022.72;;;24.86;46.85
9229;BME280;4649;42.644;23.284;2022-07-29T18:41:30;93110.47;;;25.31;45.80
9229;BME280;4649;42.644;23.284;2022-07-29T18:43:57;93084.66;;;24.91;48.02
9229;BME280;4649;42.644;23.284;2022-07-29T18:46:25;93101.41;;;25.02;45.61
9229;BME280;4649;42.644;23.284;2022-07-29T18:48:52;93123.03;;;25.32;44.09
9229;BME280;4649;42.644;23.284;2022-07-29T18:51:21;93048.66;;;25.00;43.51
9229;BME280;4649;42.644;23.284;2022-07-29T18:53:48;93120.50;;;25.55;42.64
9229;BME280;4649;42.644;23.284;2022-07-29T18:56:16;93120.22;;;25.41;43.25
9229;BME280;4649;42.644;23.284;2022-07-29T18:58:43;93139.31;;;25.47;42.50
9229;BME280;4649;42.644;23.284;2022-07-29T19:01:10;93058.56;;;25.03;41.99
9229;BME280;4649;42.644;23.284;2022-07-29T19:03:39;93124.88;;;25.58;41.85
9229;BME280;4649;42.644;23.284;2022-07-29T19:06:06;93121.78;;;25.63;42.29
9229;BME280;4649;42.644;23.284;2022-07-29T19:08:39;93090.75;;;25.36;41.28
9229;BME280;4649;42.644;23.284;2022-07-29T19:11:06;93053.59;;;25.11;41.12
9229;BME280;4649;42.644;23.284;2022-07-29T19:13:33;93039.81;;;25.51;39.69
9229;BME280;4649;42.644;23.284;2022-07-29T19:16:01;93138.09;;;25.97;40.34
9229;BME280;4649;42.644;23.284;2022-07-29T19:18:28;93144.22;;;25.95;40.30
9229;BME280;4649;42.644;23.284;2022-07-29T19:20:56;92985.22;;;24.95;39.73
9229;BME280;4649;42.644;23.284;2022-07-29T19:23:23;93086.38;;;25.52;40.17
9229;BME280;4649;42.644;23.284;2022-07-29T19:25:50;93083.41;;;25.69;39.30
9229;BME280;4649;42.644;23.284;2022-07-29T19:28:16;93134.56;;;25.96;39.53
9229;BME280;4649;42.644;23.284;2022-07-29T19:30:43;93156.88;;;26.08;40.13
9229;BME280;4649;42.644;23.284;2022-07-29T19:33:10;93151.75;;;26.14;39.17
9229;BME280;4649;42.644;23.284;2022-07-29T19:35:38;93059.09;;;25.49;38.93
9229;BME280;4649;42.644;23.284;2022-07-29T19:38:07;93031.69;;;25.34;38.80
9229;BME280;4649;42.644;23.284;2022-07-29T19:40:33;93028.22;;;25.24;39.20
9229;BME280;4649;42.644;23.284;2022-07-29T19:43:03;93125.75;;;26.09;38.25
9229;BME280;4649;42.644;23.284;2022-07-29T19:45:31;93066.75;;;25.69;38.38
9229;BME280;4649;42.644;23.284;2022-07-29T19:47:58;93165.72;;;26.25;38.99
9229;BME280;4649;42.644;23.284;2022-07-29T19:50:28;93082.38;;;25.65;39.24
9229;BME280;4649;42.644;23.284;2022-07-29T19:52:55;93073.81;;;25.42;39.16
9229;BME280;4649;42.644;23.284;2022-07-29T19:55:24;93046.97;;;25.44;39.06
9229;BME280;4649;42.644;23.284;2022-07-29T19:57:51;92992.25;;;25.05;38.90
9229;BME280;4649;42.644;23.284;2022-07-29T20:00:19;93075.09;;;25.60;39.06
9229;BME280;4649;42.644;23.284;2022-07-29T20:02:45;93146.06;;;26.12;38.94
9229;BME280;4649;42.644;23.284;2022-07-29T20:05:12;93125.22;;;26.01;38.99
9229;BME280;4649;42.644;23.284;2022-07-29T20:07:39;93145.84;;;26.29;38.72
9229;BME280;4649;42.644;23.284;2022-07-29T20:10:07;93162.34;;;26.36;39.57
9229;BME280;4649;42.644;23.284;2022-07-29T20:12:35;93153.44;;;26.28;39.70
9229;BME280;4649;42.644;23.284;2022-07-29T20:15:03;93049.88;;;25.56;40.07
9229;BME280;4649;42.644;23.284;2022-07-29T20:17:31;93144.78;;;26.43;39.52
9229;BME280;4649;42.644;23.284;2022-07-29T20:19:57;92994.25;;;25.23;39.95
9229;BME280;4649;42.644;23.284;2022-07-29T20:22:25;93100.41;;;26.03;40.32
9229;BME280;4649;42.644;23.284;2022-07-29T20:24:52;93065.59;;;25.72;40.20
9229;BME280;4649;42.644;23.284;2022-07-29T20:27:19;93125.47;;;26.15;40.64
9229;BME280;4649;42.644;23.284;2022-07-29T20:29:47;93097.25;;;25.79;40.76
9229;BME280;4649;42.644;23.284;2022-07-29T20:32:14;93147.63;;;26.24;40.87
9229;BME280;4649;42.644;23.284;2022-07-29T20:34:40;93141.25;;;26.12;40.86
9229;BME280;4649;42.644;23.284;2022-07-29T20:37:07;93115.75;;;25.95;40.84
9229;BME280;4649;42.644;23.284;2022-07-29T20:39:35;93053.81;;;25.53;40.79
9229;BME280;4649;42.644;23.284;2022-07-29T20:42:02;93070.84;;;25.68;41.21
9229;BME280;4649;42.644;23.284;2022-07-29T20:44:31;93102.47;;;25.93;40.67
9229;BME280;4649;42.644;23.284;2022-07-29T20:47:00;93089.97;;;25.74;41.14
9229;BME280;4649;42.644;23.284;2022-07-29T20:49:27;93156.44;;;26.11;41.25
9229;BME280;4649;42.644;23.284;2022-07-29T20:51:53;93022.41;;;25.01;41.45
9229;BME280;4649;42.644;23.284;2022-07-29T20:54:20;93160.06;;;26.14;41.45
9229;BME280;4649;42.644;23.284;2022-07-29T20:56:47;93157.78;;;26.01;41.74
9229;BME280;4649;42.644;23.284;2022-07-29T20:59:13;93163.63;;;26.05;41.75
9229;BME280;4649;42.644;23.284;2022-07-29T21:01:40;93164.31;;;26.05;41.98
9229;BME280;4649;42.644;23.284;2022-07-29T21:04:08;93079.69;;;25.46;42.15
9229;BME280;4649;42.644;23.284;2022-07-29T21:06:35;93156.34;;;25.90;42.88
9229;BME280;4649;42.644;23.284;2022-07-29T21:09:02;93065.56;;;25.23;43.55
9229;BME280;4649;42.644;23.284;2022-07-29T21:11:30;93159.84;;;25.91;44.47
9229;BME280;4649;42.644;23.284;2022-07-29T21:13:57;93153.03;;;25.64;45.28
9229;BME280;4649;42.644;23.284;2022-07-29T21:16:23;93050.25;;;24.75;45.93
9229;BME280;4649;42.644;23.284;2022-07-29T21:18:52;93031.50;;;24.09;47.55
9229;BME280;4649;42.644;23.284;2022-07-29T21:21:21;93070.13;;;24.26;47.53
9229;BME280;4649;42.644;23.284;2022-07-29T21:23:48;93152.72;;;24.94;47.77
9229;BME280;4649;42.644;23.284;2022-07-29T21:26:16;93142.50;;;24.77;48.30
9229;BME280;4649;42.644;23.284;2022-07-29T21:28:43;93125.75;;;24.30;49.49
9229;BME280;4649;42.644;23.284;2022-07-29T21:31:11;93155.44;;;24.30;50.15
9229;BME280;4649;42.644;23.284;2022-07-29T21:33:39;93071.44;;;23.54;50.92
9229;BME280;4649;42.644;23.284;2022-07-29T21:36:06;93128.38;;;23.92;50.49
9229;BME280;4649;42.644;23.284;2022-07-29T21:38:35;93159.69;;;23.95;51.61
9229;BME280;4649;42.644;23.284;2022-07-29T21:41:03;93157.41;;;24.10;51.63
9229;BME280;4649;42.644;23.284;2022-07-29T21:43:31;93095.41;;;23.78;52.44
9229;BME280;4649;42.644;23.284;2022-07-29T21:45:58;93071.88;;;23.60;52.80
9229;BME280;4649;42.644;23.284;2022-07-29T21:48:27;93159.50;;;24.19;53.25
9229;BME280;4649;42.644;23.284;2022-07-29T21:50:54;93034.84;;;23.36;55.11
9229;BME280;4649;42.644;23.284;2022-07-29T21:53:21;93055.94;;;23.41;55.43
9229;BME280;4649;42.644;23.284;2022-07-29T21:55:50;93002.09;;;23.33;53.77
9229;BME280;4649;42.644;23.284;2022-07-29T21:58:18;93135.34;;;24.20;51.86
9229;BME280;4649;42.644;23.284;2022-07-29T22:00:46;93146.72;;;24.24;53.28
9229;BME280;4649;42.644;23.284;2022-07-29T22:03:16;93151.19;;;24.19;53.79
9229;BME280;4649;42.644;23.284;2022-07-29T22:05:43;93075.59;;;23.45;53.11
9229;BME280;4649;42.644;23.284;2022-07-29T22:08:10;93158.28;;;24.03;51.29
9229;BME280;4649;42.644;23.284;2022-07-29T22:10:37;93154.47;;;23.99;52.42
9229;BME280;4649;42.644;23.284;2022-07-29T22:13:06;93110.97;;;23.73;53.39
9229;BME280;4649;42.644;23.284;2022-07-29T22:15:33;93170.81;;;24.04;52.73
9229;BME280;4649;42.644;23.284;2022-07-29T22:18:00;93161.16;;;23.96;54.26
9229;BME280;4649;42.644;23.284;2022-07-29T22:20:27;93062.16;;;23.32;54.24
9229;BME280;4649;42.644;23.284;2022-07-29T22:22:54;93152.53;;;23.92;53.27
9229;BME280;4649;42.644;23.284;2022-07-29T22:25:21;93062.78;;;23.14;53.02
9229;BME280;4649;42.644;23.284;2022-07-29T22:27:51;93073.50;;;23.10;55.49
9229;BME280;4649;42.644;23.284;2022-07-29T22:30:19;93081.31;;;23.04;56.10
9229;BME280;4649;42.644;23.284;2022-07-29T22:32:47;93135.59;;;23.35;58.55
9229;BME280;4649;42.644;23.284;2022-07-29T22:35:16;93173.50;;;23.52;58.53
9229;BME280;4649;42.644;23.284;2022-07-29T22:37:43;93167.97;;;23.52;57.58
9229;BME280;4649;42.644;23.284;2022-07-29T22:40:12;93175.34;;;23.23;56.87
9229;BME280;4649;42.644;23.284;2022-07-29T22:42:39;93162.44;;;23.26;55.05
9229;BME280;4649;42.644;23.284;2022-07-29T22:45:08;93061.91;;;22.61;55.09
9229;BME280;4649;42.644;23.284;2022-07-29T22:47:36;93167.13;;;23.32;56.39
9229;BME280;4649;42.644;23.284;2022-07-29T22:50:04;93079.13;;;22.69;56.08
9229;BME280;4649;42.644;23.284;2022-07-29T22:52:31;93174.69;;;23.32;56.32
9229;BME280;4649;42.644;23.284;2022-07-29T22:54:58;93061.41;;;22.55;58.21
9229;BME280;4649;42.644;23.284;2022-07-29T22:57:25;93158.53;;;23.12;56.51
9229;BME280;4649;42.644;23.284;2022-07-29T22:59:52;93061.50;;;22.31;57.02
9229;BME280;4649;42.644;23.284;2022-07-29T23:02:19;93075.59;;;22.35;57.44
9229;BME280;4649;42.644;23.284;2022-07-29T23:04:50;93008.28;;;21.80;58.61
9229;BME280;4649;42.644;23.284;2022-07-29T23:07:16;93161.50;;;22.89;58.07
9229;BME280;4649;42.644;23.284;2022-07-29T23:09:43;93135.84;;;22.63;58.46
9229;BME280;4649;42.644;23.284;2022-07-29T23:12:10;93121.53;;;22.57;60.38
9229;BME280;4649;42.644;23.284;2022-07-29T23:14:36;93108.31;;;22.38;60.43
9229;BME280;4649;42.644;23.284;2022-07-29T23:17:04;93157.72;;;22.85;61.87
9229;BME280;4649;42.644;23.284;2022-07-29T23:19:30;93070.75;;;22.18;61.71
9229;BME280;4649;42.644;23.284;2022-07-29T23:21:58;93165.97;;;22.85;61.90
9229;BME280;4649;42.644;23.284;2022-07-29T23:24:28;93162.41;;;22.92;59.80
9229;BME280;4649;42.644;23.284;2022-07-29T23:26:55;93160.63;;;22.87;61.67
9229;BME280;4649;42.644;23.284;2022-07-29T23:29:22;93101.38;;;22.30;60.55
9229;BME280;4649;42.644;23.284;2022-07-29T23:31:49;93086.34;;;22.23;59.78
9229;BME280;4649;42.644;23.284;2022-07-29T23:34:16;93088.75;;;22.27;59.14
9229;BME280;4649;42.644;23.284;2022-07-29T23:36:43;93063.63;;;22.15;60.37
9229;BME280;4649;42.644;23.284;2022-07-29T23:39:12;93098.16;;;22.41;59.06